Time;durP1;ratioP1;P1;durP2;ratioP2;P2;SDS_P1;SDS_P2;PMS_P1;PMS_P2;Temp;Humidity;BMP_temperature;BMP_pressure;BME280_temperature;BME280_humidity;BME280_pressure;Samples;Min_cycle;Max_cycle;Signal;HPM_P1;HPM_P2
2021/11/04 00:00:29;;;;;;;;;27.50;26.00;;;;;7.72;66.91;99842.78;5075256;28;45371;-62
2021/11/04 00:02:55;;;;;;;;;27.50;23.25;;;;;7.71;66.88;99845.53;5075613;28;46418;-62
2021/11/04 00:05:21;;;;;;;;;25.25;22.00;;;;;7.71;66.81;99840.31;5076202;28;45219;-62
2021/11/04 00:07:51;;;;;;;;;30.25;24.25;;;;;7.68;66.84;99846.59;5076322;28;45292;-62
2021/11/04 00:10:18;;;;;;;;;29.25;23.75;;;;;7.67;66.85;99838.91;5075159;27;45311;-62
2021/11/04 00:12:43;;;;;;;;;30.00;25.00;;;;;7.66;66.95;99845.09;5079309;28;45348;-61
2021/11/04 00:15:09;;;;;;;;;27.25;21.00;;;;;7.64;66.90;99841.78;5079781;28;45312;-61
2021/11/04 00:17:35;;;;;;;;;23.25;21.00;;;;;7.61;66.89;99840.28;5079748;28;45252;-61
2021/11/04 00:20:01;;;;;;;;;27.00;22.25;;;;;7.59;67.00;99836.97;5079936;28;45157;-62
2021/11/04 00:22:26;;;;;;;;;28.25;22.25;;;;;7.58;66.80;99838.75;5079194;28;45390;-62
2021/11/04 00:24:52;;;;;;;;;33.75;24.00;;;;;7.55;66.99;99839.03;5079251;27;45362;-62
2021/11/04 00:27:17;;;;;;;;;24.50;20.75;;;;;7.53;66.91;99835.72;5079834;28;45401;-63
2021/11/04 00:29:42;;;;;;;;;26.00;22.50;;;;;7.51;66.93;99836.81;5079651;28;45564;-61
2021/11/04 00:32:08;;;;;;;;;26.50;22.00;;;;;7.49;66.81;99838.75;5078686;28;65188;-62
2021/11/04 00:34:33;;;;;;;;;25.75;22.00;;;;;7.46;66.97;99836.38;5077455;28;66872;-62
2021/11/04 00:36:59;;;;;;;;;26.00;22.50;;;;;7.44;67.00;99839.13;5079055;27;57100;-61
2021/11/04 00:39:24;;;;;;;;;27.25;25.00;;;;;7.45;67.00;99843.38;5078720;27;60890;-62
2021/11/04 00:41:49;;;;;;;;;26.75;23.25;;;;;7.44;67.04;99844.34;5078427;27;64999;-61
2021/11/04 00:44:15;;;;;;;;;27.25;25.75;;;;;7.43;67.01;99847.91;5078988;27;45306;-62
2021/11/04 00:46:40;;;;;;;;;28.25;22.25;;;;;7.43;67.00;99848.75;5079275;28;45401;-62
2021/11/04 00:49:06;;;;;;;;;23.00;22.00;;;;;7.41;66.99;99847.25;5079431;28;45469;-61
2021/11/04 00:51:31;;;;;;;;;26.50;20.50;;;;;7.37;66.93;99843.25;5078390;28;65927;-61
2021/11/04 00:53:57;;;;;;;;;23.25;22.25;;;;;7.34;67.18;99843.50;5077355;27;55345;-62
2021/11/04 00:56:22;;;;;;;;;26.75;23.25;;;;;7.32;67.16;99843.63;5079301;27;45433;-61
2021/11/04 00:58:49;;;;;;;;;26.00;20.25;;;;;7.28;67.07;99845.69;5077861;27;45395;-61
2021/11/04 01:01:16;;;;;;;;;27.75;23.00;;;;;7.28;67.32;99850.91;5079258;27;46427;-61
2021/11/04 01:03:41;;;;;;;;;29.00;24.50;;;;;7.28;67.21;99839.63;5079046;27;45305;-61
2021/11/04 01:06:07;;;;;;;;;31.75;22.75;;;;;7.28;67.46;99837.84;5078339;28;61085;-61
2021/11/04 01:08:32;;;;;;;;;24.25;22.50;;;;;7.28;67.41;99837.00;5078344;28;62986;-61
2021/11/04 01:10:57;;;;;;;;;29.25;25.25;;;;;7.26;67.57;99845.00;5077483;27;45984;-61
2021/11/04 01:13:23;;;;;;;;;31.75;25.50;;;;;7.27;67.79;99846.66;5076749;27;64777;-61
2021/11/04 01:15:48;;;;;;;;;30.75;25.50;;;;;7.28;68.03;99847.47;5078564;27;50309;-62
2021/11/04 01:18:13;;;;;;;;;31.75;29.00;;;;;7.30;67.89;99852.56;5078098;27;63290;-61
2021/11/04 01:20:39;;;;;;;;;26.50;25.25;;;;;7.30;68.04;99852.56;5078298;27;51371;-61
2021/11/04 01:23:04;;;;;;;;;30.25;26.25;;;;;7.28;67.99;99856.16;5077385;28;61031;-62
2021/11/04 01:25:31;;;;;;;;;37.00;26.50;;;;;7.29;68.19;99851.72;5077752;27;59589;-61
2021/11/04 01:27:57;;;;;;;;;28.25;25.75;;;;;7.30;68.33;99853.38;5078215;27;45539;-62
2021/11/04 01:30:22;;;;;;;;;24.75;24.50;;;;;7.31;68.40;99854.22;5078492;28;45437;-62
2021/11/04 01:32:47;;;;;;;;;32.00;26.75;;;;;7.30;68.71;99853.38;5078487;28;45390;-62
2021/11/04 01:35:13;;;;;;;;;31.00;27.75;;;;;7.34;68.38;99853.97;5078683;28;45255;-62
2021/11/04 01:37:38;;;;;;;;;27.25;25.25;;;;;7.36;68.55;99857.28;5078598;28;45165;-61
2021/11/04 01:40:04;;;;;;;;;34.75;28.75;;;;;7.36;68.60;99852.84;5077217;27;45310;-61
2021/11/04 01:42:30;;;;;;;;;31.50;27.50;;;;;7.38;68.71;99852.75;5078429;27;45223;-61
2021/11/04 01:44:55;;;;;;;;;31.75;28.00;;;;;7.39;68.60;99867.47;5077791;28;57475;-61
2021/11/04 01:47:20;;;;;;;;;26.25;25.00;;;;;7.42;68.47;99861.94;5078408;28;45434;-61
2021/11/04 01:49:46;;;;;;;;;28.00;25.00;;;;;7.44;68.52;99862.66;5059532;28;65674;-61
2021/11/04 01:52:11;;;;;;;;;25.50;23.75;;;;;7.45;68.68;99866.91;5077022;27;45213;-60
2021/11/04 01:54:37;;;;;;;;;28.50;22.75;;;;;7.48;68.75;99858.81;5077366;28;65903;-61
2021/11/04 01:57:02;;;;;;;;;30.50;23.00;;;;;7.51;68.93;99862.97;5078223;27;45268;-60
2021/11/04 01:59:28;;;;;;;;;28.75;22.75;;;;;7.54;68.96;99854.84;5076888;27;46153;-61
2021/11/04 02:02:20;;;;;;;;;29.75;26.00;;;;;7.56;68.89;99852.94;5077212;28;65182;-61
2021/11/04 02:05:02;;;;;;;;;28.50;22.75;;;;;7.61;68.95;99852.53;5076179;27;45505;-61
2021/11/04 02:07:49;;;;;;;;;29.50;25.50;;;;;7.63;68.61;99848.81;5060500;28;45461;-61
2021/11/04 02:10:18;;;;;;;;;23.75;21.25;;;;;7.67;68.79;99850.22;5077955;28;46237;-61
2021/11/04 02:13:12;;;;;;;;;27.25;24.00;;;;;7.69;68.40;99853.50;5076718;27;46048;-61
2021/11/04 02:15:38;;;;;;;;;22.50;21.50;;;;;7.70;68.34;99852.53;5076924;28;45278;-61
2021/11/04 02:18:07;;;;;;;;;29.00;24.50;;;;;7.70;68.46;99847.31;5078036;27;45307;-61
2021/11/04 02:20:50;;;;;;;;;25.75;22.00;;;;;7.71;68.50;99858.59;5076467;28;45523;-61
2021/11/04 02:23:25;;;;;;;;;26.75;23.25;;;;;7.71;68.39;99856.81;5077794;28;45838;-62
2021/11/04 02:25:50;;;;;;;;;31.75;23.00;;;;;7.72;68.57;99860.25;5060149;28;45557;-62
2021/11/04 02:28:19;;;;;;;;;25.25;23.50;;;;;7.73;68.47;99856.69;5059854;28;45530;-62
2021/11/04 02:30:44;;;;;;;;;26.75;23.25;;;;;7.75;68.79;99859.16;5059892;28;46345;-61
2021/11/04 02:33:10;;;;;;;;;21.00;21.00;;;;;7.76;68.76;99863.41;5059578;28;45245;-62
2021/11/04 02:35:35;;;;;;;;;27.25;23.00;;;;;7.77;68.73;99865.06;5076427;28;45289;-62
2021/11/04 02:38:01;;;;;;;;;28.25;21.25;;;;;7.78;68.86;99866.72;5075302;28;66446;-62
2021/11/04 02:40:26;;;;;;;;;23.25;20.00;;;;;7.78;68.91;99862.34;5075545;27;52088;-61
2021/11/04 02:42:52;;;;;;;;;20.75;19.75;;;;;7.82;68.86;99868.97;5075508;27;64167;-62
2021/11/04 02:45:19;;;;;;;;;23.50;21.25;;;;;7.85;68.53;99878.31;5076820;28;54549;-61
2021/11/04 02:47:45;;;;;;;;;30.00;25.75;;;;;7.85;68.42;99878.31;5077467;28;45470;-62
2021/11/04 02:50:10;;;;;;;;;22.75;22.75;;;;;7.85;68.45;99876.53;5075393;27;65052;-61
2021/11/04 02:52:35;;;;;;;;;24.50;19.50;;;;;7.85;68.47;99873.09;5077254;28;45515;-61
2021/11/04 02:55:04;;;;;;;;;24.75;22.25;;;;;7.86;68.41;99885.19;5077426;27;45345;-62
2021/11/04 02:57:29;;;;;;;;;25.00;23.50;;;;;7.83;68.62;99875.84;5077264;27;45480;-62
2021/11/04 02:59:55;;;;;;;;;26.25;23.00;;;;;7.83;68.44;99883.69;5077120;28;45491;-61
2021/11/04 03:02:20;;;;;;;;;26.00;23.50;;;;;7.82;68.46;99878.59;5076618;28;61584;-61
2021/11/04 03:04:45;;;;;;;;;29.00;24.50;;;;;7.79;68.41;99884.91;5076353;28;63155;-61
2021/11/04 03:07:11;;;;;;;;;26.75;23.50;;;;;7.77;68.36;99876.38;5076580;28;53095;-62
2021/11/04 03:09:36;;;;;;;;;21.00;20.25;;;;;7.73;68.46;99880.22;5076088;28;67922;-62
2021/11/04 03:12:02;;;;;;;;;24.25;23.75;;;;;7.71;68.29;99887.38;5077107;27;45295;-61
2021/11/04 03:14:27;;;;;;;;;28.00;23.75;;;;;7.69;68.40;99881.44;5075946;28;45279;-61
2021/11/04 03:16:54;;;;;;;;;29.00;24.25;;;;;7.66;68.38;99882.56;5076204;28;65632;-61
2021/11/04 03:19:21;;;;;;;;;25.00;21.50;;;;;7.66;68.38;99887.78;5076829;28;46394;-62
2021/11/04 03:21:48;;;;;;;;;22.75;21.50;;;;;7.62;68.63;99898.63;5075437;28;45372;-61
2021/11/04 03:24:18;;;;;;;;;22.75;21.00;;;;;7.60;68.60;99890.09;5076744;27;45312;-61
2021/11/04 03:26:43;;;;;;;;;21.75;20.00;;;;;7.57;68.60;99894.63;5076844;28;45705;-61
2021/11/04 03:29:09;;;;;;;;;22.00;20.25;;;;;7.57;68.61;99899.03;5076199;27;56730;-61
2021/11/04 03:31:35;;;;;;;;;26.75;23.00;;;;;7.54;68.76;99907.94;5057930;28;60845;-61
2021/11/04 03:34:01;;;;;;;;;25.25;22.25;;;;;7.53;68.62;99906.28;5075518;28;45329;-61
2021/11/04 03:36:26;;;;;;;;;27.00;22.25;;;;;7.53;68.72;99914.13;5076773;27;45332;-62
2021/11/04 03:38:52;;;;;;;;;21.75;20.75;;;;;7.49;68.77;99907.50;5057877;28;63127;-62
2021/11/04 03:41:18;;;;;;;;;26.00;20.25;;;;;7.49;69.01;99904.09;5075325;27;45380;-60
2021/11/04 03:43:43;;;;;;;;;20.50;19.00;;;;;7.48;68.81;99908.47;5058654;28;45237;-61
2021/11/04 03:46:09;;;;;;;;;22.50;20.00;;;;;7.46;68.82;99905.16;5076846;28;64021;-61
2021/11/04 03:48:37;;;;;;;;;22.00;20.00;;;;;7.48;68.90;99913.69;5064262;28;70943;-62
2021/11/04 03:51:03;;;;;;;;;25.00;23.25;;;;;7.49;68.96;99917.97;5082046;27;45265;-62
2021/11/04 03:53:28;;;;;;;;;23.75;22.75;;;;;7.49;69.02;99920.59;5064741;28;51630;-61
2021/11/04 03:55:53;;;;;;;;;25.50;21.75;;;;;7.50;69.09;99922.25;5064285;27;61683;-61
2021/11/04 03:58:19;;;;;;;;;25.25;22.75;;;;;7.51;68.83;99921.28;5081632;27;50879;-61
2021/11/04 04:00:44;;;;;;;;;25.25;21.50;;;;;7.51;69.00;99921.28;5081010;27;64991;-62
2021/11/04 04:03:10;;;;;;;;;23.25;21.50;;;;;7.51;68.82;99918.66;5081900;27;45640;-61
2021/11/04 04:05:35;;;;;;;;;24.75;19.75;;;;;7.50;68.93;99916.19;5081928;28;45449;-61
2021/11/04 04:08:01;;;;;;;;;22.75;20.25;;;;;7.51;69.07;99926.50;5082641;28;56223;-61
2021/11/04 04:10:27;;;;;;;;;24.00;22.75;;;;;7.51;69.10;99913.44;5082779;27;46584;-61
2021/11/04 04:12:53;;;;;;;;;21.25;18.00;;;;;7.51;68.98;99918.66;5083131;27;45374;-61
2021/11/04 04:15:19;;;;;;;;;27.75;21.00;;;;;7.51;69.09;99918.66;5081783;27;45307;-61
2021/11/04 04:17:44;;;;;;;;;22.25;20.00;;;;;7.54;69.25;99926.25;5082850;28;46172;-61
2021/11/04 04:20:10;;;;;;;;;23.25;20.50;;;;;7.58;69.27;99922.41;5083006;27;45253;-61
2021/11/04 04:22:35;;;;;;;;;21.75;19.50;;;;;7.61;69.26;99928.34;5083041;28;45239;-61
2021/11/04 04:25:00;;;;;;;;;26.00;22.25;;;;;7.64;69.20;99928.09;5081907;27;61099;-61
2021/11/04 04:27:26;;;;;;;;;21.50;20.00;;;;;7.67;69.39;99925.19;5080955;28;60786;-61
2021/11/04 04:29:53;;;;;;;;;22.75;21.00;;;;;7.69;69.43;99925.91;5082732;27;45203;-62
2021/11/04 04:32:18;;;;;;;;;24.75;24.00;;;;;7.71;69.64;99922.19;5082969;28;45330;-62
2021/11/04 04:34:43;;;;;;;;;26.25;24.75;;;;;7.74;69.36;99926.34;5082818;27;45274;-62
2021/11/04 04:37:09;;;;;;;;;23.50;22.50;;;;;7.78;69.48;99927.72;5080509;28;67237;-61
2021/11/04 04:39:36;;;;;;;;;21.25;21.00;;;;;7.80;69.50;99927.56;5082805;28;45372;-62
2021/11/04 04:42:02;;;;;;;;;22.00;20.25;;;;;7.81;69.45;99924.00;5082876;27;45315;-61
2021/11/04 04:44:28;;;;;;;;;26.25;19.25;;;;;7.82;69.67;99925.66;5081596;27;45656;-61
2021/11/04 04:46:53;;;;;;;;;28.00;25.00;;;;;7.83;69.55;99933.38;5082436;28;46146;-61
2021/11/04 04:49:18;;;;;;;;;30.75;24.50;;;;;7.84;69.65;99927.19;5081676;27;66731;-61
2021/11/04 04:51:44;;;;;;;;;26.00;20.50;;;;;7.85;69.48;99922.78;5082456;27;45317;-61
2021/11/04 04:54:09;;;;;;;;;29.25;24.75;;;;;7.85;69.71;99926.22;5082551;27;45631;-61
2021/11/04 04:56:35;;;;;;;;;29.50;24.25;;;;;7.85;69.87;99921.00;5081743;28;64993;-62
2021/11/04 04:59:01;;;;;;;;;26.50;24.00;;;;;7.86;70.04;99927.88;5077686;27;49282;-61
2021/11/04 05:01:26;;;;;;;;;26.00;25.50;;;;;7.87;70.12;99934.78;5078637;28;45487;-61
2021/11/04 05:03:52;;;;;;;;;27.75;26.25;;;;;7.89;70.21;99933.81;5078826;28;47428;-62
2021/11/04 05:06:17;;;;;;;;;25.50;20.75;;;;;7.92;70.18;99941.41;5078569;27;46550;-62
2021/11/04 05:08:42;;;;;;;;;22.25;20.75;;;;;7.95;70.35;99943.75;5078836;28;45304;-62
2021/11/04 05:11:08;;;;;;;;;28.00;22.25;;;;;7.96;70.41;99935.75;5079046;27;45359;-60
2021/11/04 05:13:33;;;;;;;;;27.00;24.00;;;;;7.98;70.41;99930.38;5078501;28;60997;-61
2021/11/04 05:15:59;;;;;;;;;28.75;21.25;;;;;7.98;70.38;99935.59;5077943;28;66515;-62
2021/11/04 05:18:24;;;;;;;;;27.00;23.75;;;;;7.99;70.57;99943.34;5078673;27;45295;-61
2021/11/04 05:20:50;;;;;;;;;24.50;23.75;;;;;8.00;70.61;99950.22;5078869;27;45331;-61
2021/11/04 05:23:15;;;;;;;;;25.00;20.00;;;;;8.03;70.78;99954.34;5078805;28;45507;-61
2021/11/04 05:25:40;;;;;;;;;25.00;21.50;;;;;8.04;70.90;99950.78;5078089;28;46080;-62
2021/11/04 05:28:06;;;;;;;;;24.25;19.25;;;;;8.04;71.04;99949.97;5078673;28;45285;-61
2021/11/04 05:30:31;;;;;;;;;24.50;23.50;;;;;8.06;70.96;99953.28;5077709;27;67633;-61
2021/11/04 05:32:57;;;;;;;;;26.50;22.00;;;;;8.07;71.05;99954.94;5078487;27;45529;-61
2021/11/04 05:35:22;;;;;;;;;26.75;22.75;;;;;8.09;71.33;99950.38;5077083;27;45448;-62
2021/11/04 05:37:48;;;;;;;;;23.75;21.00;;;;;8.11;71.02;99956.31;5078364;28;45326;-61
2021/11/04 05:40:13;;;;;;;;;23.75;21.00;;;;;8.11;71.23;99953.69;5077237;27;60464;-61
2021/11/04 05:42:39;;;;;;;;;26.50;20.00;;;;;8.11;71.36;99957.13;5078477;28;45174;-61
2021/11/04 05:45:04;;;;;;;;;24.75;21.25;;;;;8.12;71.24;99958.78;5077919;28;53250;-61
2021/11/04 05:47:30;;;;;;;;;27.25;22.50;;;;;8.13;71.34;99957.00;5078095;27;45293;-62
2021/11/04 05:49:55;;;;;;;;;27.25;22.50;;;;;8.13;71.33;99949.97;5078681;28;45482;-62
2021/11/04 05:52:21;;;;;;;;;40.50;31.25;;;;;8.14;71.36;99959.47;5077563;27;66059;-62
2021/11/04 05:54:47;;;;;;;;;29.75;24.00;;;;;8.15;71.69;99961.13;5077441;28;67000;-61
2021/11/04 05:57:12;;;;;;;;;23.00;20.75;;;;;8.15;71.53;99962.94;5078217;28;45854;-61
2021/11/04 05:59:38;;;;;;;;;28.50;23.50;;;;;8.16;71.50;99959.34;5078188;28;45762;-61
2021/11/04 06:02:03;;;;;;;;;25.25;24.25;;;;;8.16;71.66;99965.41;5077315;28;61563;-62
2021/11/04 06:04:36;;;;;;;;;28.50;25.50;;;;;8.17;71.75;99966.25;5077466;27;45508;-61
2021/11/04 06:07:04;;;;;;;;;21.25;18.75;;;;;8.17;71.99;99974.91;5076903;28;45331;-61
2021/11/04 06:09:32;;;;;;;;;31.25;25.50;;;;;8.20;71.86;99980.84;5077700;28;45255;-61
2021/11/04 06:11:57;;;;;;;;;29.00;26.00;;;;;8.21;71.88;99987.72;5077181;28;67729;-62
2021/11/04 06:14:24;;;;;;;;;28.75;24.50;;;;;8.21;71.88;99988.56;5076419;27;72116;-62
2021/11/04 06:16:49;;;;;;;;;24.75;21.50;;;;;8.22;71.88;99989.38;5077483;27;46044;-62
2021/11/04 06:19:14;;;;;;;;;23.75;22.25;;;;;8.23;71.92;99983.19;5076623;28;45288;-62
2021/11/04 06:21:40;;;;;;;;;28.25;21.25;;;;;8.23;72.04;99988.44;5077111;28;57051;-62
2021/11/04 06:24:05;;;;;;;;;29.50;26.50;;;;;8.24;72.13;99993.50;5076859;28;56553;-62
2021/11/04 06:26:31;;;;;;;;;24.50;23.25;;;;;8.26;71.80;99996.00;5076879;28;55348;-61
2021/11/04 06:28:56;;;;;;;;;28.50;24.00;;;;;8.27;72.07;99995.03;5076541;27;64764;-62
2021/11/04 06:31:21;;;;;;;;;27.75;23.50;;;;;8.28;72.05;100007.16;5077415;28;45506;-61
2021/11/04 06:33:47;;;;;;;;;23.75;22.50;;;;;8.28;71.97;100010.59;5076359;28;70205;-62
2021/11/04 06:36:12;;;;;;;;;27.25;25.25;;;;;8.28;71.90;100009.78;5076293;27;65822;-61
2021/11/04 06:38:37;;;;;;;;;29.50;23.25;;;;;8.28;72.18;100009.78;5076959;28;51292;-62
2021/11/04 06:41:03;;;;;;;;;26.25;24.25;;;;;8.28;72.17;100012.41;5077214;28;47667;-61
2021/11/04 06:43:28;;;;;;;;;24.25;20.75;;;;;8.28;72.25;100021.06;5076315;28;69339;-61
2021/11/04 06:45:53;;;;;;;;;28.50;21.75;;;;;8.27;72.36;100019.41;5077173;28;45366;-61
2021/11/04 06:48:43;;;;;;;;;24.00;19.50;;;;;8.29;72.37;100021.91;5075493;27;62162;-61
2021/11/04 06:51:12;;;;;;;;;27.25;22.25;;;;;8.30;72.41;100028.81;5076281;28;45379;-62
2021/11/04 06:53:46;;;;;;;;;26.25;23.50;;;;;8.29;72.47;100027.97;5077076;28;45497;-61
2021/11/04 06:56:11;;;;;;;;;22.50;21.75;;;;;8.30;72.59;100034.84;5059932;28;45866;-61
2021/11/04 06:58:37;;;;;;;;;25.50;22.00;;;;;8.31;72.62;100033.91;5077355;28;45208;-62
2021/11/04 07:01:07;;;;;;;;;23.25;21.50;;;;;8.32;72.49;100032.13;5077119;28;45597;-61
2021/11/04 07:03:33;;;;;;;;;24.75;21.50;;;;;8.32;72.60;100038.16;5075565;28;46919;-62
2021/11/04 07:06:23;;;;;;;;;24.50;22.50;;;;;8.34;72.71;100040.66;5075587;28;45394;-61
2021/11/04 07:08:52;;;;;;;;;23.00;22.00;;;;;8.36;72.80;100040.53;5076821;27;45177;-62
2021/11/04 07:11:18;;;;;;;;;26.75;19.75;;;;;8.37;72.86;100047.41;5075646;28;45339;-62
2021/11/04 07:13:46;;;;;;;;;29.25;21.00;;;;;8.39;73.00;100041.09;5074866;28;65909;-61
2021/11/04 07:16:11;;;;;;;;;18.00;18.00;;;;;8.40;72.99;100048.00;5075644;28;45353;-62
2021/11/04 07:18:36;;;;;;;;;19.25;19.00;;;;;8.43;72.95;100050.34;5075141;28;58488;-61
2021/11/04 07:21:10;;;;;;;;;20.00;18.75;;;;;8.45;72.63;100051.03;5075974;28;45361;-62
2021/11/04 07:23:40;;;;;;;;;23.50;20.25;;;;;8.48;72.87;100056.97;5075359;28;46232;-62
2021/11/04 07:26:06;;;;;;;;;24.25;22.75;;;;;8.50;73.09;100057.66;5076578;28;45340;-62
2021/11/04 07:28:32;;;;;;;;;26.75;22.25;;;;;8.51;73.11;100062.78;5075575;28;45289;-61
2021/11/04 07:30:57;;;;;;;;;22.75;19.75;;;;;8.54;73.15;100070.38;5075521;28;45351;-61
2021/11/04 07:33:24;;;;;;;;;22.75;21.00;;;;;8.57;73.39;100071.88;5076578;28;46099;-61
2021/11/04 07:35:49;;;;;;;;;22.50;21.25;;;;;8.59;73.40;100083.91;5058686;28;45732;-61
2021/11/04 07:38:15;;;;;;;;;29.75;24.25;;;;;8.59;73.21;100085.66;5058006;28;52477;-61
2021/11/04 07:40:40;;;;;;;;;26.50;22.50;;;;;8.60;73.36;100085.56;5076553;28;45417;-61
2021/11/04 07:43:06;;;;;;;;;25.25;23.00;;;;;8.60;73.30;100096.03;5075946;27;61101;-61
2021/11/04 07:45:31;;;;;;;;;31.50;23.00;;;;;8.63;73.26;100096.72;5076260;28;45493;-61
2021/11/04 07:47:57;;;;;;;;;23.50;20.75;;;;;8.63;73.31;100102.78;5074872;28;45182;-61
2021/11/04 07:50:27;;;;;;;;;28.50;22.25;;;;;8.67;73.38;100103.34;5058180;28;45255;-61
2021/11/04 07:52:53;;;;;;;;;24.00;22.00;;;;;8.67;73.45;100106.78;5076156;27;46363;-61
2021/11/04 07:55:18;;;;;;;;;23.75;21.25;;;;;8.69;73.29;100110.09;5074933;27;48171;-62
2021/11/04 07:57:44;;;;;;;;;23.50;22.00;;;;;8.71;73.43;100115.22;5075476;27;45255;-62
2021/11/04 08:00:11;;;;;;;;;23.75;22.25;;;;;8.73;73.32;100113.28;5075332;28;45691;-61
2021/11/04 08:02:37;;;;;;;;;27.75;22.50;;;;;8.75;73.57;100112.19;5076117;28;46435;-62
2021/11/04 08:05:03;;;;;;;;;24.50;23.50;;;;;8.78;73.41;100118.13;5075019;28;45293;-62
2021/11/04 08:07:32;;;;;;;;;21.25;17.75;;;;;8.78;73.54;100125.97;5075143;28;45374;-61
2021/11/04 08:09:58;;;;;;;;;23.25;20.00;;;;;8.80;73.32;100127.47;5076160;28;45310;-62
2021/11/04 08:12:23;;;;;;;;;20.50;19.50;;;;;8.82;73.30;100122.13;5075624;28;57048;-62
2021/11/04 08:14:49;;;;;;;;;24.75;18.75;;;;;8.85;73.53;100124.47;5074765;28;45448;-62
2021/11/04 08:17:14;;;;;;;;;21.50;17.50;;;;;8.88;73.51;100132.88;5075367;28;59376;-62
2021/11/04 08:19:39;;;;;;;;;19.00;17.50;;;;;8.91;73.53;100132.63;5076077;28;45557;-61
2021/11/04 08:22:05;;;;;;;;;20.50;18.00;;;;;8.95;73.54;100141.06;5075411;28;55157;-61
2021/11/04 08:24:30;;;;;;;;;18.75;16.00;;;;;8.99;73.84;100133.72;5074215;28;46226;-61
2021/11/04 08:26:56;;;;;;;;;23.75;19.50;;;;;9.03;73.56;100151.66;5075952;28;45239;-62
2021/11/04 08:29:21;;;;;;;;;18.50;16.00;;;;;9.09;73.99;100141.59;5076023;28;45174;-61
2021/11/04 08:31:46;;;;;;;;;15.50;14.00;;;;;9.12;73.77;100143.94;5075061;27;65632;-61
2021/11/04 08:34:12;;;;;;;;;19.50;17.75;;;;;9.14;73.86;100148.09;5079358;28;45235;-61
2021/11/04 08:36:37;;;;;;;;;22.00;19.25;;;;;9.19;73.77;100152.94;5078653;28;45563;-61
2021/11/04 08:39:03;;;;;;;;;20.00;16.75;;;;;9.25;73.66;100152.38;5078462;27;65077;-61
2021/11/04 08:41:28;;;;;;;;;18.50;17.25;;;;;9.28;73.59;100152.13;5078628;28;64390;-62
2021/11/04 08:43:53;;;;;;;;;19.00;15.50;;;;;9.30;73.69;100160.66;5079276;28;45353;-62
2021/11/04 08:46:19;;;;;;;;;18.75;16.50;;;;;9.34;73.59;100155.97;5079212;27;45400;-61
2021/11/04 08:48:44;;;;;;;;;18.75;16.00;;;;;9.38;73.50;100157.34;5077796;28;45490;-62
2021/11/04 08:51:10;;;;;;;;;16.75;16.00;;;;;9.40;73.54;100159.84;5076915;27;63395;-62
2021/11/04 08:53:35;;;;;;;;;16.50;15.50;;;;;9.43;73.18;100168.25;5077578;28;45431;-61
2021/11/04 08:56:01;;;;;;;;;14.00;13.50;;;;;9.50;73.00;100168.56;5077085;28;58964;-61
2021/11/04 08:58:26;;;;;;;;;15.50;12.75;;;;;9.52;73.05;100169.25;5077544;28;45371;-61
2021/11/04 09:00:55;;;;;;;;;16.75;14.50;;;;;9.60;72.93;100171.97;5076707;28;69123;-62
2021/11/04 09:03:21;;;;;;;;;10.25;10.25;;;;;9.67;73.00;100177.50;5077745;28;45963;-61
2021/11/04 09:05:47;;;;;;;;;15.50;13.50;;;;;9.81;73.08;100173.63;5074668;28;45486;-61
2021/11/04 09:08:12;;;;;;;;;10.00;9.75;;;;;10.00;73.22;100179.84;5077717;28;45466;-61
2021/11/04 09:10:38;;;;;;;;;14.25;13.00;;;;;10.16;72.95;100176.59;5076436;28;72037;-61
2021/11/04 09:13:03;;;;;;;;;12.50;10.50;;;;;10.30;72.25;100177.94;5077825;28;45387;-62
2021/11/04 09:15:29;;;;;;;;;10.75;10.75;;;;;10.39;71.77;100187.63;5077828;28;45342;-61
2021/11/04 09:17:54;;;;;;;;;9.50;8.25;;;;;10.45;71.28;100184.44;5077283;28;47012;-62
2021/11/04 09:20:20;;;;;;;;;14.75;12.00;;;;;10.52;71.15;100193.41;5074867;28;45551;-62
2021/11/04 09:22:48;;;;;;;;;8.00;7.00;;;;;10.56;71.05;100188.66;5074946;27;45357;-62
2021/11/04 09:25:14;;;;;;;;;8.50;7.50;;;;;10.60;70.60;100191.84;5076434;27;45587;-62
2021/11/04 09:27:40;;;;;;;;;12.75;10.00;;;;;10.64;70.74;100195.81;5076902;28;45477;-62
2021/11/04 09:30:06;;;;;;;;;11.75;8.00;;;;;10.64;70.67;100199.28;5076443;27;65063;-62
2021/11/04 09:32:31;;;;;;;;;7.25;6.00;;;;;10.67;70.57;100211.28;5077277;28;45421;-61
2021/11/04 09:34:59;;;;;;;;;8.75;6.00;;;;;10.68;69.97;100210.31;5077302;27;45339;-61
2021/11/04 09:37:25;;;;;;;;;6.25;6.00;;;;;10.68;70.17;100210.31;5072679;28;60601;-61
2021/11/04 09:39:51;;;;;;;;;7.75;6.00;;;;;10.67;69.80;100214.75;5074147;28;46576;-61
2021/11/04 09:42:17;;;;;;;;;7.00;6.00;;;;;10.66;69.58;100212.25;5074566;28;45292;-62
2021/11/04 09:44:44;;;;;;;;;7.50;6.00;;;;;10.66;69.44;100207.84;5076469;27;45319;-61
2021/11/04 09:47:10;;;;;;;;;4.00;4.00;;;;;10.68;69.11;100215.56;5076926;27;45446;-62
2021/11/04 09:49:35;;;;;;;;;6.50;4.75;;;;;10.66;69.15;100213.09;5076856;28;46183;-62
2021/11/04 09:52:00;;;;;;;;;5.00;4.00;;;;;10.66;69.03;100217.50;5076971;28;45997;-62
2021/11/04 09:54:26;;;;;;;;;4.25;3.75;;;;;10.63;68.43;100215.19;5076874;27;53983;-61
2021/11/04 09:56:51;;;;;;;;;2.50;2.50;;;;;10.63;68.23;100223.06;5076336;28;53529;-61
2021/11/04 09:59:17;;;;;;;;;5.75;4.25;;;;;10.62;68.60;100224.88;5076890;27;46311;-61
2021/11/04 10:01:46;;;;;;;;;3.50;3.50;;;;;10.63;68.78;100233.56;5073952;27;65809;-62
2021/11/04 10:04:11;;;;;;;;;5.00;4.00;;;;;10.64;68.51;100229.97;5073035;27;45458;-62
2021/11/04 10:06:38;;;;;;;;;4.00;3.75;;;;;10.64;68.82;100230.81;5072203;28;65844;-62
2021/11/04 10:09:05;;;;;;;;;7.75;4.00;;;;;10.66;68.61;100235.91;5073802;28;46131;-62
2021/11/04 10:11:36;;;;;;;;;4.00;4.00;;;;;10.66;68.43;100230.66;5074585;27;45593;-62
2021/11/04 10:14:20;;;;;;;;;2.50;2.50;;;;;10.69;68.53;100235.63;5076019;28;45451;-62
2021/11/04 10:16:45;;;;;;;;;2.00;2.00;;;;;10.72;68.69;100232.72;5055350;28;65232;-62
2021/11/04 10:19:15;;;;;;;;;3.00;3.00;;;;;10.76;68.46;100236.69;5074646;28;45503;-62
2021/11/04 10:21:46;;;;;;;;;4.00;3.25;;;;;10.80;68.32;100237.25;5056729;28;45574;-62
2021/11/04 10:24:28;;;;;;;;;2.75;2.75;;;;;10.84;68.00;100242.06;5072989;28;45547;-61
2021/11/04 10:26:54;;;;;;;;;3.50;3.50;;;;;10.89;67.84;100244.25;5072525;28;45469;-62
2021/11/04 10:29:20;;;;;;;;;4.00;4.00;;;;;10.94;67.95;100242.00;5074106;28;46116;-61
2021/11/04 10:31:50;;;;;;;;;4.00;4.00;;;;;10.99;67.48;100246.84;5074230;27;46473;-62
2021/11/04 10:34:26;;;;;;;;;4.50;4.25;;;;;11.03;67.77;100245.59;5071604;28;45497;-60
2021/11/04 10:36:52;;;;;;;;;4.00;3.00;;;;;11.10;67.06;100243.19;5073222;27;45434;-62
2021/11/04 10:39:17;;;;;;;;;5.00;3.00;;;;;11.15;67.60;100233.06;5073360;28;46479;-62
2021/11/04 10:41:43;;;;;;;;;4.50;3.00;;;;;11.22;67.34;100241.19;5073623;28;60973;-62
2021/11/04 10:44:20;;;;;;;;;4.00;3.00;;;;;11.30;67.11;100243.09;5071257;28;45480;-61
2021/11/04 10:46:53;;;;;;;;;4.25;3.50;;;;;11.38;66.12;100244.00;5056872;28;45649;-62
2021/11/04 10:49:22;;;;;;;;;6.00;4.00;;;;;11.46;65.97;100251.13;5073497;27;46186;-62
2021/11/04 10:52:03;;;;;;;;;5.75;3.00;;;;;11.53;65.74;100252.19;5072342;28;50092;-61
2021/11/04 10:54:50;;;;;;;;;5.00;4.00;;;;;11.61;65.51;100251.47;5073059;28;45308;-62
2021/11/04 10:57:38;;;;;;;;;3.00;3.00;;;;;11.72;65.64;100256.47;5070382;27;45545;-62
2021/11/04 11:00:19;;;;;;;;;4.00;2.50;;;;;11.80;65.16;100261.00;5070502;28;45575;-61
2021/11/04 11:03:05;;;;;;;;;2.50;2.00;;;;;11.90;64.65;100268.00;5070492;28;45429;-61
2021/11/04 11:05:32;;;;;;;;;6.25;4.00;;;;;11.95;64.53;100263.09;5074227;27;45421;-62
2021/11/04 11:07:57;;;;;;;;;2.00;2.00;;;;;11.98;63.24;100266.25;5073493;28;45916;-61
2021/11/04 11:10:23;;;;;;;;;4.25;3.00;;;;;12.02;63.28;100267.66;5073750;28;60055;-62
2021/11/04 11:12:48;;;;;;;;;4.00;2.00;;;;;12.11;63.22;100265.09;5072405;27;68524;-62
2021/11/04 11:15:14;;;;;;;;;6.50;5.00;;;;;12.23;63.20;100265.66;5069835;28;65392;-62
2021/11/04 11:17:41;;;;;;;;;2.50;2.50;;;;;12.34;63.20;100270.69;5073916;28;45629;-62
2021/11/04 11:20:09;;;;;;;;;2.75;2.75;;;;;12.42;62.88;100275.16;5074040;28;46375;-61